Time;durP1;ratioP1;P1;durP2;ratioP2;P2;SDS_P1;SDS_P2;PMS_P1;PMS_P2;Temp;Humidity;BMP_temperature;BMP_pressure;BME280_temperature;BME280_humidity;BME280_pressure;Samples;Min_cycle;Max_cycle;Signal;HPM_P1;HPM_P2
2023/01/17 00:01:15;;;;;;;2.17;0.80;;;3.80;99.90;;;;;;5022912;28;20206;-70
2023/01/17 00:12:00;;;;;;;2.17;1.30;;;3.80;99.90;;;;;;5028915;28;20556;-69
2023/01/17 00:14:27;;;;;;;2.40;0.97;;;3.90;99.90;;;;;;5026100;28;20220;-69
2023/01/17 00:16:54;;;;;;;4.30;1.00;;;3.90;99.90;;;;;;5025113;28;20250;-69
2023/01/17 01:34:29;;;;;;;5.00;1.20;;;3.50;99.90;;;;;;5024989;28;20211;-69
2023/01/17 01:36:56;;;;;;;3.57;0.90;;;3.50;99.90;;;;;;5024815;28;20208;-69
2023/01/17 01:39:23;;;;;;;2.10;0.90;;;3.50;99.90;;;;;;5025504;28;20740;-69
2023/01/17 01:41:49;;;;;;;2.93;1.00;;;3.50;99.90;;;;;;5042094;28;20213;-69
2023/01/17 01:44:48;;;;;;;6.27;1.00;;;3.50;99.90;;;;;;5014888;28;20209;-69
2023/01/17 01:47:19;;;;;;;3.00;0.97;;;3.50;99.90;;;;;;5023285;28;20235;-69
2023/01/17 01:49:47;;;;;;;8.23;2.40;;;3.40;99.90;;;;;;5022723;28;20295;-69
2023/01/17 01:52:15;;;;;;;2.33;1.50;;;3.40;99.90;;;;;;5023903;28;20218;-69
2023/01/17 01:54:56;;;;;;;4.13;1.20;;;3.50;99.90;;;;;;5025129;28;20261;-69
2023/01/17 01:57:26;;;;;;;2.90;1.20;;;3.50;99.90;;;;;;5021701;28;20220;-69
2023/01/17 02:00:00;;;;;;;4.13;1.40;;;3.50;99.90;;;;;;5022353;28;20211;-69
2023/01/17 02:02:29;;;;;;;3.50;1.23;;;3.40;99.90;;;;;;5021602;28;20305;-68
2023/01/17 02:04:58;;;;;;;3.37;1.10;;;3.40;99.90;;;;;;5020692;28;20317;-68
2023/01/17 02:07:31;;;;;;;3.13;1.10;;;3.40;99.90;;;;;;5027167;28;20235;-69
2023/01/17 02:09:59;;;;;;;5.80;1.40;;;3.40;99.90;;;;;;5020289;28;20220;-69
2023/01/17 02:12:26;;;;;;;1.23;0.90;;;3.30;99.90;;;;;;5030467;28;20205;-69
2023/01/17 02:14:53;;;;;;;2.67;1.00;;;3.30;99.90;;;;;;5022555;28;20291;-69
2023/01/17 02:18:01;;;;;;;2.60;0.90;;;3.20;99.90;;;;;;5021306;28;20221;-69
2023/01/17 02:20:57;;;;;;;2.03;1.03;;;3.20;99.90;;;;;;5025460;28;20211;-69
2023/01/17 02:23:52;;;;;;;1.10;1.00;;;3.20;99.90;;;;;;5028633;28;20209;-69
2023/01/17 02:26:37;;;;;;;4.63;1.00;;;3.10;99.90;;;;;;5025911;28;20224;-69
2023/01/17 02:29:47;;;;;;;4.47;1.20;;;3.00;99.90;;;;;;5024826;28;20238;-70
2023/01/17 02:32:23;;;;;;;4.37;1.20;;;3.00;99.90;;;;;;5030199;28;20586;-69
2023/01/17 02:35:01;;;;;;;1.90;0.80;;;2.90;99.90;;;;;;5020414;28;20288;-69
2023/01/17 02:37:47;;;;;;;2.33;1.00;;;2.90;99.90;;;;;;5026072;28;20462;-69
2023/01/17 02:40:33;;;;;;;2.83;1.30;;;2.90;99.90;;;;;;5028751;28;20247;-69
2023/01/17 02:43:04;;;;;;;4.47;1.20;;;2.80;99.90;;;;;;5020779;28;20626;-69
2023/01/17 02:45:31;;;;;;;3.43;1.10;;;2.80;99.90;;;;;;5028185;28;20211;-69
2023/01/17 02:47:58;;;;;;;5.37;1.20;;;2.70;99.90;;;;;;5031169;28;20558;-69
2023/01/17 02:50:47;;;;;;;2.40;1.10;;;2.70;99.90;;;;;;5023314;28;20196;-70
2023/01/17 02:53:26;;;;;;;2.30;1.20;;;2.70;99.90;;;;;;5031106;28;20786;-68
2023/01/17 02:56:04;;;;;;;2.83;1.17;;;2.70;99.90;;;;;;5022617;28;20212;-70
2023/01/17 02:58:59;;;;;;;2.93;1.10;;;2.70;99.90;;;;;;5024185;28;20582;-68
2023/01/17 03:01:58;;;;;;;1.30;1.07;;;2.70;99.90;;;;;;5025217;28;20224;-68
2023/01/17 03:04:58;;;;;;;2.70;1.47;;;2.70;99.90;;;;;;5011045;28;20280;-68
2023/01/17 03:07:26;;;;;;;2.23;1.20;;;2.80;99.90;;;;;;5026472;28;20208;-69
2023/01/17 03:09:58;;;;;;;5.90;1.53;;;2.80;99.90;;;;;;5029587;28;20684;-68
2023/01/17 03:12:27;;;;;;;3.67;1.10;;;2.80;99.90;;;;;;5029915;28;20196;-68
2023/01/17 03:14:54;;;;;;;1.73;1.10;;;2.90;99.90;;;;;;5029392;28;20664;-69
2023/01/17 03:17:23;;;;;;;4.37;1.20;;;2.90;99.90;;;;;;5023726;28;20329;-68
2023/01/17 03:19:50;;;;;;;4.90;1.40;;;2.90;99.90;;;;;;5030303;28;20227;-69
2023/01/17 03:22:17;;;;;;;6.13;1.40;;;2.90;99.90;;;;;;5024484;28;20293;-69
2023/01/17 03:24:43;;;;;;;2.13;1.50;;;3.00;99.90;;;;;;5023639;28;20204;-69
2023/01/17 03:27:10;;;;;;;5.00;1.53;;;3.00;99.90;;;;;;5032060;28;20581;-69
2023/01/17 03:29:37;;;;;;;5.80;1.60;;;3.00;99.90;;;;;;5022790;28;20238;-69
2023/01/17 03:32:04;;;;;;;2.97;1.70;;;3.00;99.90;;;;;;5019143;28;20222;-69
2023/01/17 03:34:30;;;;;;;4.63;1.77;;;3.00;99.90;;;;;;5027193;28;20209;-68
2023/01/17 03:36:57;;;;;;;5.90;1.83;;;2.90;99.90;;;;;;5025583;28;20204;-68
2023/01/17 03:39:24;;;;;;;7.47;1.57;;;2.90;99.90;;;;;;5021426;28;20698;-68
2023/01/17 03:41:50;;;;;;;4.57;1.70;;;2.90;99.90;;;;;;5029213;28;20198;-68
2023/01/17 03:44:17;;;;;;;6.43;2.17;;;2.90;99.90;;;;;;5032926;28;20211;-69
2023/01/17 03:46:44;;;;;;;6.37;1.83;;;2.90;99.90;;;;;;5024995;28;20232;-68
2023/01/17 03:49:10;;;;;;;1.87;1.40;;;2.90;99.90;;;;;;5020781;28;20263;-69
2023/01/17 03:51:37;;;;;;;2.67;1.20;;;2.90;99.90;;;;;;5025839;28;20298;-68
2023/01/17 03:54:04;;;;;;;3.53;1.37;;;2.90;99.90;;;;;;5022575;28;20217;-69
2023/01/17 03:56:31;;;;;;;5.33;1.63;;;2.90;99.90;;;;;;5030249;28;20663;-69
2023/01/17 03:58:57;;;;;;;7.00;1.50;;;2.90;99.90;;;;;;5030725;28;20225;-69
2023/01/17 04:01:24;;;;;;;5.70;1.50;;;2.80;99.90;;;;;;5029100;28;20340;-69
2023/01/17 04:03:51;;;;;;;3.40;1.50;;;2.80;99.90;;;;;;5022946;28;20209;-69
2023/01/17 04:06:18;;;;;;;2.80;1.00;;;2.80;99.90;;;;;;5031923;28;20215;-69
2023/01/17 04:08:44;;;;;;;4.30;1.27;;;2.80;99.90;;;;;;5025729;28;20225;-68
2023/01/17 04:11:11;;;;;;;5.87;2.70;;;2.80;99.90;;;;;;5028220;28;20585;-68
2023/01/17 04:13:37;;;;;;;2.83;1.20;;;2.80;99.90;;;;;;5028271;28;20643;-69
2023/01/17 04:16:04;;;;;;;4.10;1.03;;;2.70;99.90;;;;;;5026314;28;20543;-69
2023/01/17 04:18:31;;;;;;;4.97;1.20;;;2.70;99.90;;;;;;5028440;28;20219;-69
2023/01/17 04:20:58;;;;;;;5.47;1.30;;;2.60;99.90;;;;;;5030142;28;20298;-69
2023/01/17 04:23:24;;;;;;;8.33;1.50;;;2.60;99.90;;;;;;5023009;28;20196;-69
2023/01/17 04:25:51;;;;;;;5.57;1.37;;;2.60;99.90;;;;;;5032646;28;20310;-69
2023/01/17 04:28:18;;;;;;;7.37;1.70;;;2.50;99.90;;;;;;5024551;28;20742;-69
2023/01/17 04:30:44;;;;;;;8.67;1.40;;;2.50;99.90;;;;;;5023636;28;20687;-69
2023/01/17 04:33:12;;;;;;;4.80;1.40;;;2.50;99.90;;;;;;5026291;28;20333;-69
2023/01/17 04:35:38;;;;;;;4.97;1.40;;;2.40;99.90;;;;;;5026327;28;20209;-69
2023/01/17 04:38:05;;;;;;;8.10;1.50;;;2.40;99.90;;;;;;5031264;28;20212;-69
2023/01/17 04:40:32;;;;;;;12.87;1.93;;;2.40;99.90;;;;;;5027910;28;20608;-69
2023/01/17 04:42:58;;;;;;;4.73;1.43;;;2.50;99.90;;;;;;5022671;28;20208;-69
2023/01/17 04:45:25;;;;;;;7.17;1.33;;;2.50;99.90;;;;;;5023766;28;20305;-69
2023/01/17 04:47:52;;;;;;;7.03;1.37;;;2.50;99.90;;;;;;5025184;28;20225;-69
2023/01/17 04:50:19;;;;;;;5.37;1.40;;;2.50;99.90;;;;;;5026235;28;20210;-70
2023/01/17 04:52:45;;;;;;;4.07;1.10;;;2.50;99.90;;;;;;5024976;28;20211;-70
2023/01/17 04:55:12;;;;;;;7.30;2.00;;;2.40;99.90;;;;;;5026021;28;20207;-69
2023/01/17 04:57:39;;;;;;;2.57;1.30;;;2.30;99.90;;;;;;5020226;28;20214;-68
2023/01/17 05:00:06;;;;;;;11.47;2.13;;;2.30;99.90;;;;;;5027179;28;20290;-68
2023/01/17 05:02:33;;;;;;;4.40;2.03;;;2.20;99.90;;;;;;5025764;28;20343;-70
2023/01/17 05:05:00;;;;;;;5.73;2.40;;;2.20;99.90;;;;;;5040653;28;20680;-69
2023/01/17 05:07:26;;;;;;;6.23;3.53;;;2.10;99.90;;;;;;5026670;28;20212;-69
2023/01/17 05:09:53;;;;;;;9.07;3.63;;;2.00;99.90;;;;;;5026572;28;20256;-68
2023/01/17 05:12:20;;;;;;;9.60;4.67;;;1.90;99.90;;;;;;5028801;28;20198;-68
2023/01/17 05:14:46;;;;;;;10.43;4.70;;;1.80;99.90;;;;;;5031445;28;20296;-68
2023/01/17 05:17:13;;;;;;;9.87;4.67;;;1.80;99.90;;;;;;5020740;28;20706;-68
2023/01/17 05:19:40;;;;;;;13.33;4.60;;;1.70;99.90;;;;;;5027184;28;20210;-68
2023/01/17 05:22:13;;;;;;;9.83;5.00;;;1.70;99.90;;;;;;5022792;28;20681;-68
2023/01/17 05:24:45;;;;;;;13.83;5.77;;;1.70;99.90;;;;;;5025622;28;20213;-68
2023/01/17 05:27:13;;;;;;;11.23;5.60;;;1.70;99.90;;;;;;5023409;28;20213;-68
2023/01/17 05:29:40;;;;;;;7.37;4.60;;;1.60;99.90;;;;;;5019950;28;20274;-68
2023/01/17 05:32:07;;;;;;;9.17;4.53;;;1.60;99.90;;;;;;5022112;28;20227;-69
2023/01/17 05:34:33;;;;;;;9.23;4.13;;;1.60;99.90;;;;;;5022150;28;20204;-67
2023/01/17 05:37:00;;;;;;;7.73;4.10;;;1.60;99.90;;;;;;5025208;28;20199;-69
2023/01/17 05:39:27;;;;;;;12.17;4.80;;;1.50;99.90;;;;;;5021564;28;20319;-68
2023/01/17 05:41:54;;;;;;;10.60;3.83;;;1.50;99.90;;;;;;5026220;28;20293;-70
2023/01/17 05:44:20;;;;;;;12.73;3.67;;;1.50;99.90;;;;;;5021719;28;20218;-69
2023/01/17 05:46:47;;;;;;;5.63;3.23;;;1.50;99.90;;;;;;5031084;28;20228;-68
2023/01/17 05:49:14;;;;;;;5.27;3.10;;;1.50;99.90;;;;;;5022118;28;20260;-69
2023/01/17 05:51:40;;;;;;;7.63;3.70;;;1.40;99.90;;;;;;5025190;28;20207;-68
2023/01/17 05:54:07;;;;;;;9.70;3.40;;;1.40;99.90;;;;;;5023721;28;20251;-68
2023/01/17 05:56:34;;;;;;;7.77;3.27;;;1.30;99.90;;;;;;5022172;28;20250;-69
2023/01/17 05:59:00;;;;;;;10.23;3.27;;;1.40;99.90;;;;;;5022789;28;20206;-69
2023/01/17 06:01:27;;;;;;;5.47;3.20;;;1.30;99.90;;;;;;5021832;28;20206;-69
2023/01/17 06:03:54;;;;;;;9.03;3.20;;;1.40;99.90;;;;;;5024428;28;20593;-68
2023/01/17 06:06:21;;;;;;;12.10;3.43;;;1.40;99.90;;;;;;5027506;28;20689;-68
2023/01/17 06:08:48;;;;;;;5.60;3.03;;;1.40;99.90;;;;;;5021979;28;20233;-68
2023/01/17 06:11:14;;;;;;;9.00;3.60;;;1.40;99.90;;;;;;5030535;28;20296;-69
2023/01/17 06:13:41;;;;;;;8.57;3.13;;;1.40;99.90;;;;;;5030492;28;20198;-69
2023/01/17 06:16:08;;;;;;;7.23;3.37;;;1.40;99.90;;;;;;5030430;28;20308;-68
2023/01/17 06:18:35;;;;;;;10.60;3.67;;;1.50;99.90;;;;;;5023991;28;20670;-69
2023/01/17 06:21:01;;;;;;;10.40;3.73;;;1.40;99.90;;;;;;5031261;28;20194;-68
2023/01/17 06:23:28;;;;;;;7.53;3.47;;;1.40;99.90;;;;;;5032574;28;20204;-68
2023/01/17 06:25:55;;;;;;;9.97;3.90;;;1.50;99.90;;;;;;5031485;28;20190;-68
2023/01/17 06:28:22;;;;;;;8.40;4.00;;;1.50;99.90;;;;;;5031876;28;20277;-70
2023/01/17 06:30:49;;;;;;;12.00;4.70;;;1.40;99.90;;;;;;5027384;28;20229;-67
2023/01/17 06:33:16;;;;;;;7.33;4.47;;;1.40;99.90;;;;;;5028227;28;20688;-69
2023/01/17 06:35:50;;;;;;;12.20;5.33;;;1.40;99.90;;;;;;5027252;28;20301;-68
2023/01/17 06:38:17;;;;;;;11.77;5.67;;;1.30;99.90;;;;;;5031930;28;20784;-70
2023/01/17 06:40:44;;;;;;;17.43;6.20;;;1.30;99.90;;;;;;5032061;28;20310;-70
2023/01/17 06:43:10;;;;;;;15.97;6.40;;;1.20;99.90;;;;;;5024973;28;20303;-68
2023/01/17 06:45:37;;;;;;;14.57;6.47;;;1.20;99.90;;;;;;5024278;28;20562;-70
2023/01/17 06:48:04;;;;;;;12.70;6.03;;;1.20;99.90;;;;;;5027864;28;20720;-69
2023/01/17 06:50:32;;;;;;;17.77;7.07;;;1.10;99.90;;;;;;5022148;28;20309;-69
2023/01/17 06:53:02;;;;;;;16.13;7.40;;;1.10;99.90;;;;;;5030427;28;20752;-69
2023/01/17 06:55:32;;;;;;;14.07;6.73;;;1.10;99.90;;;;;;5026594;28;20210;-69
2023/01/17 06:57:59;;;;;;;13.97;7.00;;;1.10;99.90;;;;;;5022068;28;20205;-69
2023/01/17 07:00:26;;;;;;;15.80;7.57;;;1.00;99.90;;;;;;5026396;28;20665;-69
2023/01/17 07:02:53;;;;;;;16.07;7.50;;;1.00;99.90;;;;;;5028400;28;20219;-69
2023/01/17 07:05:20;;;;;;;20.13;9.07;;;1.10;99.90;;;;;;5023759;28;20216;-70
2023/01/17 07:07:47;;;;;;;21.10;9.00;;;1.10;99.90;;;;;;5030724;28;20642;-69
2023/01/17 07:10:14;;;;;;;18.13;9.67;;;1.10;99.90;;;;;;5018161;28;20336;-70
2023/01/17 07:12:41;;;;;;;21.47;9.53;;;1.10;99.90;;;;;;5032305;28;20204;-69
2023/01/17 07:15:09;;;;;;;22.23;10.20;;;1.10;99.90;;;;;;5027002;28;20315;-69
2023/01/17 07:17:35;;;;;;;25.00;11.00;;;1.10;99.90;;;;;;5032260;28;20249;-69
2023/01/17 07:20:03;;;;;;;21.43;11.13;;;1.10;99.90;;;;;;5035121;28;20201;-69
2023/01/17 07:22:29;;;;;;;30.40;11.77;;;1.10;99.90;;;;;;5037888;28;20283;-69
2023/01/17 07:24:57;;;;;;;26.20;11.57;;;1.10;99.90;;;;;;5029742;28;20237;-69
2023/01/17 07:27:26;;;;;;;24.00;11.13;;;1.10;99.90;;;;;;5030941;28;20454;-69
2023/01/17 07:29:53;;;;;;;23.03;11.97;;;1.10;99.90;;;;;;5018854;28;20568;-69
2023/01/17 07:32:29;;;;;;;23.50;10.80;;;1.10;99.90;;;;;;5022207;28;20237;-70
2023/01/17 07:34:56;;;;;;;23.33;11.23;;;1.10;99.90;;;;;;5029451;28;20565;-70
2023/01/17 07:37:25;;;;;;;27.53;11.67;;;1.20;99.90;;;;;;5034896;28;20204;-69
2023/01/17 07:39:52;;;;;;;34.27;12.40;;;1.20;99.90;;;;;;5025715;28;20706;-69
2023/01/17 07:42:19;;;;;;;21.73;10.93;;;1.20;99.90;;;;;;5024106;28;20209;-69
2023/01/17 07:44:48;;;;;;;22.53;11.40;;;1.30;99.90;;;;;;5027255;28;20191;-69
2023/01/17 07:47:15;;;;;;;23.50;10.67;;;1.40;99.90;;;;;;5036123;28;20236;-69
2023/01/17 07:49:42;;;;;;;21.00;9.70;;;1.40;99.90;;;;;;5031242;28;20572;-69
2023/01/17 07:52:08;;;;;;;24.97;10.83;;;1.40;99.90;;;;;;5032138;28;20208;-69
2023/01/17 07:54:35;;;;;;;29.03;10.37;;;1.40;99.90;;;;;;5032342;28;20300;-69
2023/01/17 07:57:02;;;;;;;20.63;9.70;;;1.40;99.90;;;;;;5031146;28;20211;-69
2023/01/17 07:59:29;;;;;;;22.77;9.83;;;1.40;99.90;;;;;;5033412;28;20216;-69
2023/01/17 08:01:55;;;;;;;22.97;9.83;;;1.40;99.90;;;;;;5026567;28;20327;-69
2023/01/17 08:04:25;;;;;;;28.17;10.27;;;1.30;99.90;;;;;;5029852;28;20520;-69
2023/01/17 08:06:53;;;;;;;21.70;10.50;;;1.30;99.90;;;;;;5027995;28;20218;-69
2023/01/17 08:09:20;;;;;;;19.17;9.57;;;1.30;99.90;;;;;;5035358;28;20225;-69
2023/01/17 08:11:47;;;;;;;22.17;9.17;;;1.20;99.90;;;;;;5034503;28;20678;-69
2023/01/17 08:14:14;;;;;;;21.63;9.00;;;1.30;99.90;;;;;;5030520;28;20310;-70
2023/01/17 08:16:40;;;;;;;20.40;8.70;;;1.20;99.90;;;;;;5025544;28;20605;-69
2023/01/17 08:19:07;;;;;;;19.00;8.47;;;1.20;99.90;;;;;;5029091;28;20654;-69
2023/01/17 08:21:34;;;;;;;19.57;9.33;;;1.20;99.90;;;;;;5027082;28;20216;-69
2023/01/17 08:24:01;;;;;;;21.87;9.30;;;1.20;99.90;;;;;;5021276;28;20244;-69
2023/01/17 08:26:27;;;;;;;18.43;8.90;;;1.20;99.90;;;;;;5030417;28;20224;-69
2023/01/17 08:28:59;;;;;;;22.80;9.87;;;1.20;99.90;;;;;;5023902;28;20317;-69
2023/01/17 08:31:31;;;;;;;19.53;8.90;;;1.20;99.90;;;;;;5022566;28;20306;-69
2023/01/17 08:33:58;;;;;;;20.80;9.27;;;1.20;99.90;;;;;;5029500;28;20263;-69
2023/01/17 08:36:27;;;;;;;22.73;8.43;;;1.20;99.90;;;;;;5023254;28;20207;-69
2023/01/17 08:38:54;;;;;;;19.47;8.50;;;1.20;99.90;;;;;;5025662;28;20214;-69
2023/01/17 08:41:22;;;;;;;21.07;8.37;;;1.20;99.90;;;;;;5027641;28;20202;-69
2023/01/17 08:43:50;;;;;;;18.37;8.43;;;1.30;99.90;;;;;;5025150;28;20727;-68
2023/01/17 08:46:17;;;;;;;22.33;10.70;;;1.30;99.90;;;;;;5024905;28;20281;-69
2023/01/17 08:48:44;;;;;;;16.60;9.00;;;1.30;99.90;;;;;;5027339;28;20634;-68
2023/01/17 08:51:11;;;;;;;19.30;8.50;;;1.30;99.90;;;;;;5033682;28;20300;-68
2023/01/17 08:53:37;;;;;;;20.37;8.00;;;1.30;99.90;;;;;;5031866;28;20202;-69
2023/01/17 08:56:04;;;;;;;20.37;9.10;;;1.30;99.90;;;;;;5027304;28;20214;-69
2023/01/17 08:58:32;;;;;;;19.40;7.97;;;1.30;99.90;;;;;;5026802;28;20237;-68
2023/01/17 09:01:04;;;;;;;18.00;8.90;;;1.30;99.90;;;;;;5031176;28;20212;-69
2023/01/17 09:03:32;;;;;;;14.90;8.13;;;1.40;99.90;;;;;;5025951;28;20213;-69
2023/01/17 09:06:04;;;;;;;19.03;9.13;;;1.40;99.90;;;;;;5030603;28;20205;-69
2023/01/17 09:08:32;;;;;;;21.67;8.50;;;1.40;99.90;;;;;;5026678;28;20213;-70
2023/01/17 09:11:11;;;;;;;19.93;8.53;;;1.40;99.90;;;;;;5022896;28;20233;-68
2023/01/17 09:13:38;;;;;;;13.30;7.40;;;1.40;99.90;;;;;;5024257;28;20205;-69
2023/01/17 09:16:06;;;;;;;19.10;8.10;;;1.40;99.90;;;;;;5026315;28;20253;-69
2023/01/17 09:18:34;;;;;;;16.83;7.83;;;1.40;99.90;;;;;;5034170;28;20193;-69
2023/01/17 09:21:12;;;;;;;18.13;8.23;;;1.40;99.90;;;;;;5023806;28;20210;-70
2023/01/17 09:23:39;;;;;;;21.03;7.57;;;1.40;99.90;;;;;;5030016;28;20216;-69
2023/01/17 09:26:05;;;;;;;17.70;7.60;;;1.40;99.90;;;;;;5026095;28;20771;-70
2023/01/17 09:28:39;;;;;;;20.43;8.57;;;1.40;99.90;;;;;;5029446;28;20217;-68
2023/01/17 09:31:07;;;;;;;24.17;8.33;;;1.40;99.90;;;;;;5028839;28;20305;-69
2023/01/17 09:33:35;;;;;;;24.63;8.27;;;1.40;99.90;;;;;;5028672;28;20251;-69
2023/01/17 09:36:04;;;;;;;19.50;8.43;;;1.40;99.90;;;;;;5029121;28;20205;-70
2023/01/17 09:38:31;;;;;;;14.60;8.17;;;1.40;99.90;;;;;;5035546;28;20206;-69
2023/01/17 09:41:01;;;;;;;15.20;7.57;;;1.40;99.90;;;;;;5027136;28;20238;-70
2023/01/17 09:43:54;;;;;;;17.97;7.90;;;1.40;99.90;;;;;;5034745;28;20206;-70
2023/01/17 09:46:25;;;;;;;15.07;7.50;;;1.40;99.90;;;;;;5034134;28;20228;-70
2023/01/17 09:49:25;;;;;;;15.27;7.83;;;1.50;99.90;;;;;;5034207;28;20296;-69
2023/01/17 09:51:53;;;;;;;20.07;8.80;;;1.50;99.90;;;;;;5033992;28;20698;-70
2023/01/17 09:54:22;;;;;;;14.93;7.80;;;1.50;99.90;;;;;;5032735;28;20710;-69
2023/01/17 09:57:23;;;;;;;15.10;7.90;;;1.60;99.90;;;;;;5036467;28;20293;-69
2023/01/17 10:00:17;;;;;;;17.37;9.43;;;1.60;99.90;;;;;;5032235;28;20572;-69
2023/01/17 10:03:02;;;;;;;24.50;8.10;;;1.70;99.90;;;;;;5034107;28;20310;-68
2023/01/17 10:05:45;;;;;;;18.03;7.63;;;1.80;99.90;;;;;;5036191;28;20212;-69
2023/01/17 10:08:30;;;;;;;16.63;7.30;;;1.80;99.90;;;;;;5035224;28;20203;-69
2023/01/17 10:11:18;;;;;;;13.73;7.53;;;1.90;99.90;;;;;;5031051;28;20265;-69
2023/01/17 10:14:03;;;;;;;24.43;8.33;;;2.00;99.90;;;;;;5027633;28;20733;-69
2023/01/17 10:16:42;;;;;;;15.83;8.10;;;2.00;99.90;;;;;;5028833;28;20215;-69
2023/01/17 10:19:24;;;;;;;16.90;7.63;;;2.10;99.90;;;;;;5035384;28;20207;-69
2023/01/17 10:22:01;;;;;;;14.30;7.30;;;2.20;99.90;;;;;;5034024;28;20293;-69
2023/01/17 10:24:30;;;;;;;11.47;7.13;;;2.20;99.90;;;;;;5030863;28;20241;-69
2023/01/17 10:27:00;;;;;;;13.37;6.90;;;2.30;99.90;;;;;;5031953;28;20573;-69
2023/01/17 10:29:32;;;;;;;15.23;7.67;;;2.30;99.90;;;;;;5030561;28;20297;-68
2023/01/17 10:32:00;;;;;;;14.43;6.77;;;2.40;99.90;;;;;;5028594;28;20795;-69
2023/01/17 10:34:39;;;;;;;16.17;7.53;;;2.40;99.90;;;;;;5028542;28;20675;-68
2023/01/17 10:37:21;;;;;;;13.70;7.13;;;2.40;99.90;;;;;;5026827;28;20646;-70
2023/01/17 10:39:50;;;;;;;12.17;7.37;;;2.40;99.90;;;;;;5035133;28;20230;-68
2023/01/17 10:42:39;;;;;;;13.73;7.57;;;2.40;99.90;;;;;;5032057;28;20294;-68
2023/01/17 10:45:14;;;;;;;14.57;7.90;;;2.50;99.90;;;;;;5022392;28;20212;-69
2023/01/17 10:47:47;;;;;;;12.90;7.10;;;2.50;99.90;;;;;;5032734;28;20218;-69
2023/01/17 10:50:13;;;;;;;13.77;6.80;;;2.60;99.90;;;;;;5029997;28;20717;-69
2023/01/17 10:52:59;;;;;;;11.13;7.13;;;2.60;99.90;;;;;;5034998;28;20198;-69
2023/01/17 10:55:30;;;;;;;13.40;7.47;;;2.60;99.90;;;;;;5024829;28;20347;-69
2023/01/17 10:57:57;;;;;;;12.53;6.90;;;2.70;99.90;;;;;;5024702;28;20201;-69
2023/01/17 11:00:38;;;;;;;12.67;6.53;;;2.70;99.90;;;;;;5029891;28;20200;-69
2023/01/17 11:03:08;;;;;;;12.77;6.93;;;2.70;99.90;;;;;;5020824;28;20313;-69
2023/01/17 11:05:34;;;;;;;15.03;7.37;;;2.80;99.90;;;;;;5032662;28;20210;-68
2023/01/17 11:08:04;;;;;;;13.67;7.70;;;2.80;99.90;;;;;;5029788;28;20570;-68
2023/01/17 11:10:36;;;;;;;13.97;7.03;;;2.90;99.90;;;;;;5029438;28;20759;-69
2023/01/17 11:13:06;;;;;;;13.57;6.80;;;2.90;99.90;;;;;;5025022;28;20680;-68
2023/01/17 11:15:38;;;;;;;13.83;6.93;;;2.90;99.90;;;;;;5033348;28;20561;-68
2023/01/17 11:18:13;;;;;;;9.73;5.83;;;2.90;99.90;;;;;;5030530;28;20248;-68
2023/01/17 11:20:41;;;;;;;13.50;5.80;;;3.00;99.90;;;;;;5031136;28;20206;-69
2023/01/17 11:23:28;;;;;;;16.43;6.37;;;2.90;99.90;;;;;;5028270;28;20211;-69
2023/01/17 11:26:01;;;;;;;11.17;5.87;;;2.90;99.90;;;;;;5027979;28;20204;-69
2023/01/17 11:28:31;;;;;;;14.33;6.00;;;2.90;99.90;;;;;;5030159;28;20189;-68
2023/01/17 11:31:17;;;;;;;13.47;6.50;;;2.80;99.90;;;;;;5030285;28;20771;-68
2023/01/17 11:33:52;;;;;;;15.07;6.23;;;2.80;99.90;;;;;;5032113;28;20284;-68
2023/01/17 11:36:28;;;;;;;9.40;6.17;;;2.80;99.90;;;;;;5028052;28;20563;-68
2023/01/17 11:38:56;;;;;;;11.27;7.17;;;2.80;99.90;;;;;;5030510;28;20206;-68
2023/01/17 11:41:26;;;;;;;13.50;6.43;;;2.80;99.90;;;;;;5023983;28;20704;-69
2023/01/17 11:43:56;;;;;;;9.47;6.17;;;2.80;99.90;;;;;;5032954;28;20576;-69
2023/01/17 11:46:23;;;;;;;16.50;6.80;;;2.80;99.90;;;;;;5024634;28;20735;-70
2023/01/17 11:48:56;;;;;;;10.37;6.37;;;2.80;99.90;;;;;;5035057;28;20210;-70
2023/01/17 11:51:28;;;;;;;11.03;6.33;;;2.80;99.90;;;;;;5019005;28;20219;-69
2023/01/17 11:54:12;;;;;;;12.07;6.27;;;2.80;99.90;;;;;;5035592;28;20735;-69
2023/01/17 11:56:42;;;;;;;11.27;5.83;;;2.80;99.90;;;;;;5024273;28;20290;-69
2023/01/17 11:59:26;;;;;;;11.97;5.93;;;2.80;99.90;;;;;;5029151;28;20497;-68
2023/01/17 12:02:02;;;;;;;10.30;5.70;;;2.80;99.90;;;;;;5024435;28;20242;-69
2023/01/17 12:04:44;;;;;;;9.93;6.00;;;2.90;99.90;;;;;;5026669;28;20617;-69
2023/01/17 12:07:32;;;;;;;9.00;5.10;;;2.90;99.90;;;;;;5029067;28;20203;-69
2023/01/17 12:10:16;;;;;;;8.87;5.27;;;2.90;99.90;;;;;;5027278;28;20679;-69
2023/01/17 12:19:07;;;;;;;9.23;5.57;;;2.90;99.90;;;;;;5028477;28;20201;-69
2023/01/17 12:21:45;;;;;;;8.53;5.50;;;3.00;99.90;;;;;;5032074;28;20282;-69
2023/01/17 12:24:49;;;;;;;9.80;6.20;;;3.00;99.90;;;;;;5023172;28;20729;-69
2023/01/17 12:27:39;;;;;;;12.20;6.50;;;3.00;99.90;;;;;;5028412;28;20199;-69
2023/01/17 12:30:29;;;;;;;7.20;5.03;;;3.00;99.90;;;;;;5030490;28;20699;-69
2023/01/17 12:32:59;;;;;;;6.73;4.93;;;3.00;99.90;;;;;;5027706;28;20696;-69
2023/01/17 12:35:40;;;;;;;11.27;4.60;;;3.00;99.90;;;;;;5028912;28;20213;-69
2023/01/17 12:38:38;;;;;;;11.93;5.20;;;3.00;99.90;;;;;;5031459;28;20763;-69
2023/01/17 12:41:12;;;;;;;8.27;4.83;;;3.00;99.90;;;;;;4982804;28;20360;-69
2023/01/17 12:43:40;;;;;;;6.70;5.03;;;3.00;99.90;;;;;;4987387;28;20557;-68
2023/01/17 12:46:39;;;;;;;6.67;3.93;;;3.10;99.90;;;;;;5004377;28;20284;-69
2023/01/17 12:49:22;;;;;;;6.60;4.00;;;3.00;99.90;;;;;;4991473;28;20208;-69
2023/01/17 12:51:58;;;;;;;6.37;3.80;;;3.00;99.90;;;;;;4989142;28;20696;-69
2023/01/17 12:54:34;;;;;;;7.77;4.03;;;3.00;99.90;;;;;;4991767;28;20292;-69
2023/01/17 12:57:16;;;;;;;6.50;3.70;;;3.10;99.90;;;;;;4989526;28;20206;-69
2023/01/17 13:00:04;;;;;;;5.50;3.90;;;3.10;99.90;;;;;;4993343;28;20211;-69
2023/01/17 13:02:54;;;;;;;5.33;3.37;;;3.10;99.90;;;;;;4986998;28;20234;-68
2023/01/17 13:05:41;;;;;;;5.33;3.37;;;3.10;99.90;;;;;;4985837;28;20204;-67
2023/01/17 13:08:18;;;;;;;5.20;3.50;;;3.20;99.90;;;;;;4986042;28;20299;-68
2023/01/17 13:10:50;;;;;;;4.77;3.50;;;3.20;99.90;;;;;;4988603;28;20278;-67
2023/01/17 13:13:26;;;;;;;4.17;3.60;;;3.20;99.90;;;;;;4982104;28;20206;-68
2023/01/17 13:16:14;;;;;;;4.43;2.93;;;3.20;99.90;;;;;;4986185;28;20737;-68
2023/01/17 13:18:45;;;;;;;6.40;2.97;;;3.30;99.90;;;;;;4991561;28;20223;-68
2023/01/17 13:21:31;;;;;;;4.17;2.60;;;3.30;99.90;;;;;;4986769;28;20209;-68
2023/01/17 13:23:58;;;;;;;4.30;3.00;;;3.30;99.90;;;;;;4990304;28;20207;-68
2023/01/17 13:26:38;;;;;;;5.83;3.20;;;3.30;99.90;;;;;;4989960;28;20206;-68
2023/01/17 13:29:52;;;;;;;6.37;3.10;;;3.30;99.90;;;;;;4983884;28;20214;-68
2023/01/17 13:32:44;;;;;;;5.10;3.10;;;3.40;99.90;;;;;;4988653;28;20708;-69
2023/01/17 13:35:34;;;;;;;3.93;2.70;;;3.40;99.90;;;;;;4987977;28;20212;-69
2023/01/17 13:38:07;;;;;;;4.97;2.93;;;3.40;99.90;;;;;;4989295;28;20627;-69
2023/01/17 13:40:40;;;;;;;8.23;3.20;;;3.40;99.90;;;;;;5015809;28;20315;-67
2023/01/17 13:43:24;;;;;;;4.33;3.27;;;3.40;99.90;;;;;;5027352;28;20242;-68
2023/01/17 13:45:54;;;;;;;4.03;2.70;;;3.50;99.90;;;;;;5024929;28;20299;-68
2023/01/17 13:48:21;;;;;;;5.80;3.20;;;3.50;99.90;;;;;;5027489;28;20208;-68
2023/01/17 13:50:58;;;;;;;5.80;3.53;;;3.70;99.90;;;;;;5034650;28;20233;-69
2023/01/17 13:53:27;;;;;;;6.77;2.80;;;3.80;99.90;;;;;;5023936;28;20201;-69
2023/01/17 13:56:23;;;;;;;8.97;3.23;;;3.90;99.90;;;;;;5022167;28;20296;-68
2023/01/17 13:59:01;;;;;;;5.73;2.90;;;3.80;99.90;;;;;;5025442;28;20262;-69
2023/01/17 14:01:33;;;;;;;6.90;2.93;;;3.80;99.90;;;;;;5025089;28;20306;-67
2023/01/17 14:04:02;;;;;;;5.60;2.90;;;3.70;99.90;;;;;;5018096;28;20816;-67
2023/01/17 14:06:47;;;;;;;4.23;2.60;;;3.70;99.90;;;;;;5032967;28;20588;-67
2023/01/17 14:09:19;;;;;;;6.73;3.37;;;3.70;99.90;;;;;;5030345;28;20202;-66
2023/01/17 14:12:05;;;;;;;5.33;2.90;;;3.70;99.90;;;;;;5031305;28;20282;-67
2023/01/17 14:14:41;;;;;;;4.67;2.67;;;3.70;99.90;;;;;;5022428;28;20201;-68
2023/01/17 14:17:26;;;;;;;3.57;2.30;;;3.70;99.90;;;;;;5024835;28;20222;-68
2023/01/17 14:19:59;;;;;;;3.83;2.40;;;3.70;99.90;;;;;;5054844;28;20190;-67
2023/01/17 14:22:31;;;;;;;3.17;2.20;;;3.60;99.90;;;;;;5031402;28;20197;-67
2023/01/17 14:25:19;;;;;;;3.53;2.77;;;3.60;99.90;;;;;;5031697;28;20216;-68
2023/01/17 14:27:51;;;;;;;3.37;2.23;;;3.60;99.90;;;;;;5027078;28;20287;-67
2023/01/17 14:30:33;;;;;;;4.50;2.30;;;3.60;99.90;;;;;;5028741;28;20205;-68
2023/01/17 14:33:15;;;;;;;2.90;2.20;;;3.40;99.90;;;;;;5033265;28;20299;-68
2023/01/17 14:35:55;;;;;;;5.17;2.30;;;3.50;99.90;;;;;;5025871;28;20193;-67
2023/01/17 14:38:25;;;;;;;4.73;2.30;;;3.60;99.90;;;;;;5027324;28;20205;-66
2023/01/17 14:40:59;;;;;;;2.70;1.90;;;3.50;99.90;;;;;;5027710;28;20276;-67
2023/01/17 14:43:28;;;;;;;2.40;2.10;;;3.50;99.90;;;;;;5024205;28;20204;-67
2023/01/17 14:46:01;;;;;;;5.20;2.60;;;3.50;99.90;;;;;;5031566;28;20232;-67
2023/01/17 14:48:28;;;;;;;9.37;2.80;;;3.50;99.90;;;;;;5029855;28;20243;-66
2023/01/17 14:51:00;;;;;;;7.03;2.90;;;3.50;99.90;;;;;;5030858;28;20228;-67